Time;durP1;ratioP1;P1;durP2;ratioP2;P2;SDS_P1;SDS_P2;PMS_P1;PMS_P2;Temp;Humidity;BMP_temperature;BMP_pressure;BME280_temperature;BME280_humidity;BME280_pressure;Samples;Min_cycle;Max_cycle;Signal;HPM_P1;HPM_P2
2022/10/07 00:00:53;;;;;;;26.60;16.35;;;;;;;;;;6219880;23;20026;-67
2022/10/07 00:03:21;;;;;;;26.08;16.17;;;;;;;;;;6246515;23;20019;-67
2022/10/07 00:05:59;;;;;;;28.10;16.17;;;;;;;;;;6246667;23;20040;-67
2022/10/07 00:08:26;;;;;;;28.25;15.57;;;;;;;;;;6246832;23;20016;-67
2022/10/07 00:10:54;;;;;;;22.10;14.48;;;;;;;;;;6246702;23;20047;-67
2022/10/07 00:13:22;;;;;;;18.60;12.05;;;;;;;;;;6246566;23;20013;-67
2022/10/07 00:15:49;;;;;;;19.00;11.57;;;;;;;;;;6246767;23;20020;-67
2022/10/07 00:18:17;;;;;;;14.48;10.52;;;;;;;;;;6246659;23;20019;-67
2022/10/07 00:20:44;;;;;;;19.08;12.13;;;;;;;;;;6220248;23;20123;-68
2022/10/07 00:23:12;;;;;;;17.85;10.45;;;;;;;;;;6246367;23;20054;-67
2022/10/07 00:25:39;;;;;;;21.38;10.32;;;;;;;;;;6246079;23;20050;-68
2022/10/07 00:28:07;;;;;;;15.50;9.45;;;;;;;;;;6246505;23;20016;-67
2022/10/07 00:30:34;;;;;;;15.30;9.52;;;;;;;;;;6194822;23;20016;-67
2022/10/07 00:33:03;;;;;;;16.58;8.50;;;;;;;;;;6219419;23;20020;-68
2022/10/07 00:35:30;;;;;;;15.93;9.32;;;;;;;;;;6219598;23;20066;-67
2022/10/07 00:37:58;;;;;;;12.95;8.68;;;;;;;;;;6219453;23;20519;-67
2022/10/07 00:40:25;;;;;;;18.75;9.48;;;;;;;;;;6219669;23;20020;-67
2022/10/07 00:42:53;;;;;;;15.57;9.48;;;;;;;;;;6246293;23;20019;-67
2022/10/07 00:45:20;;;;;;;16.67;8.93;;;;;;;;;;6219197;23;20024;-67
2022/10/07 00:47:50;;;;;;;14.75;8.65;;;;;;;;;;6219219;23;20458;-67
2022/10/07 00:50:42;;;;;;;16.83;9.50;;;;;;;;;;6219528;23;20024;-67
2022/10/07 00:53:10;;;;;;;14.30;8.82;;;;;;;;;;6219105;23;20327;-67
2022/10/07 00:55:38;;;;;;;14.40;8.65;;;;;;;;;;6246234;23;20074;-67
2022/10/07 00:58:08;;;;;;;16.75;9.57;;;;;;;;;;6219283;23;20031;-67
2022/10/07 01:00:36;;;;;;;16.77;9.65;;;;;;;;;;6219278;23;20529;-67
2022/10/07 01:03:04;;;;;;;15.82;9.30;;;;;;;;;;6219223;23;20024;-67
2022/10/07 01:05:32;;;;;;;13.05;8.95;;;;;;;;;;6219131;23;20022;-67
2022/10/07 01:08:00;;;;;;;15.70;8.85;;;;;;;;;;6218994;23;20107;-67
2022/10/07 01:10:32;;;;;;;16.63;8.68;;;;;;;;;;6219126;23;20074;-67
2022/10/07 01:13:06;;;;;;;15.50;8.95;;;;;;;;;;6219258;23;20020;-67
2022/10/07 01:15:52;;;;;;;15.10;9.15;;;;;;;;;;6219210;23;20016;-67
2022/10/07 01:18:25;;;;;;;16.13;8.80;;;;;;;;;;6219225;23;20104;-67
2022/10/07 01:21:28;;;;;;;14.00;9.05;;;;;;;;;;6219257;23;20055;-67
2022/10/07 01:24:07;;;;;;;14.32;8.88;;;;;;;;;;6098659;23;20105;-67
2022/10/07 01:26:47;;;;;;;16.80;9.70;;;;;;;;;;6209446;23;20054;-67
2022/10/07 01:29:18;;;;;;;16.98;8.90;;;;;;;;;;6245897;23;20287;-67
2022/10/07 01:31:48;;;;;;;16.90;9.30;;;;;;;;;;6245899;23;20312;-67
2022/10/07 01:34:16;;;;;;;15.20;8.75;;;;;;;;;;6219061;23;20450;-67
2022/10/07 01:36:50;;;;;;;19.02;8.90;;;;;;;;;;6218618;23;20066;-68
2022/10/07 01:39:20;;;;;;;18.07;9.30;;;;;;;;;;6245763;23;20319;-67
2022/10/07 01:41:48;;;;;;;16.10;8.88;;;;;;;;;;6218894;23;20110;-67
2022/10/07 01:44:17;;;;;;;18.63;9.95;;;;;;;;;;6219442;23;20443;-67
2022/10/07 01:46:46;;;;;;;14.43;9.18;;;;;;;;;;6218411;23;20016;-67
2022/10/07 01:49:14;;;;;;;19.77;10.32;;;;;;;;;;6218885;23;20024;-67
2022/10/07 01:51:46;;;;;;;18.85;11.02;;;;;;;;;;6218845;23;20022;-67
2022/10/07 01:54:32;;;;;;;20.42;12.25;;;;;;;;;;6218832;23;20020;-67
2022/10/07 01:57:14;;;;;;;19.35;11.90;;;;;;;;;;6218635;23;20043;-67
2022/10/07 01:59:51;;;;;;;20.27;11.88;;;;;;;;;;6218879;23;20020;-67
2022/10/07 02:02:34;;;;;;;20.38;12.10;;;;;;;;;;6218640;23;20046;-67
2022/10/07 02:05:19;;;;;;;18.15;10.65;;;;;;;;;;6218612;23;20108;-67
2022/10/07 02:08:03;;;;;;;19.58;10.55;;;;;;;;;;6245320;23;20050;-67
2022/10/07 02:10:47;;;;;;;21.08;10.48;;;;;;;;;;6218566;23;20065;-67
2022/10/07 02:13:54;;;;;;;17.92;11.35;;;;;;;;;;6218572;23;20703;-67
2022/10/07 02:16:27;;;;;;;18.30;10.45;;;;;;;;;;6217926;23;20020;-68
2022/10/07 02:18:56;;;;;;;19.55;9.80;;;;;;;;;;6218627;23;20040;-68
2022/10/07 02:21:27;;;;;;;13.68;9.18;;;;;;;;;;6218494;23;20024;-68
2022/10/07 02:23:56;;;;;;;14.45;9.30;;;;;;;;;;6218320;23;20097;-68
2022/10/07 02:26:27;;;;;;;16.17;8.63;;;;;;;;;;6218417;23;20023;-68
2022/10/07 02:28:57;;;;;;;18.25;10.65;;;;;;;;;;6218186;23;20051;-68
2022/10/07 02:31:29;;;;;;;17.13;9.63;;;;;;;;;;6218557;23;20395;-68
2022/10/07 02:34:00;;;;;;;17.25;9.85;;;;;;;;;;6218559;23;20040;-68
2022/10/07 02:36:32;;;;;;;18.27;10.43;;;;;;;;;;6218307;23;20016;-68
2022/10/07 02:39:01;;;;;;;12.52;8.85;;;;;;;;;;6218725;23;20027;-68
2022/10/07 02:41:35;;;;;;;17.27;9.93;;;;;;;;;;6218299;23;20020;-68
2022/10/07 02:44:24;;;;;;;16.55;9.52;;;;;;;;;;6218459;23;20349;-68
2022/10/07 02:46:56;;;;;;;15.77;8.35;;;;;;;;;;6218296;23;20012;-69
2022/10/07 02:49:25;;;;;;;15.50;8.98;;;;;;;;;;6218197;23;20043;-69
2022/10/07 02:51:56;;;;;;;14.73;8.25;;;;;;;;;;6218529;23;20084;-68
2022/10/07 02:54:27;;;;;;;14.50;8.25;;;;;;;;;;6218268;23;20024;-68
2022/10/07 02:56:56;;;;;;;13.90;9.10;;;;;;;;;;6218197;23;20074;-68
2022/10/07 02:59:24;;;;;;;19.58;10.13;;;;;;;;;;6218259;23;20469;-68
2022/10/07 03:01:53;;;;;;;26.55;12.65;;;;;;;;;;6217865;23;20024;-68
2022/10/07 03:04:22;;;;;;;26.60;12.98;;;;;;;;;;6218416;23;20039;-68
2022/10/07 03:06:49;;;;;;;19.73;11.48;;;;;;;;;;6218489;23;20020;-68
2022/10/07 03:09:17;;;;;;;24.23;13.38;;;;;;;;;;6220039;23;20466;-68
2022/10/07 03:11:44;;;;;;;18.63;11.65;;;;;;;;;;6247000;23;20020;-69
2022/10/07 03:14:13;;;;;;;17.70;10.63;;;;;;;;;;6195743;23;20016;-68
2022/10/07 03:16:40;;;;;;;17.13;9.93;;;;;;;;;;6246941;23;20070;-69
2022/10/07 03:19:09;;;;;;;19.73;12.02;;;;;;;;;;6220023;23;20012;-68
2022/10/07 03:21:46;;;;;;;16.80;10.05;;;;;;;;;;6220338;23;20461;-69
2022/10/07 03:24:14;;;;;;;17.05;9.15;;;;;;;;;;6219786;23;20070;-69
2022/10/07 03:26:44;;;;;;;17.40;9.50;;;;;;;;;;6220015;23;20024;-69
2022/10/07 03:29:13;;;;;;;24.00;14.35;;;;;;;;;;6245238;23;20389;-68
2022/10/07 03:31:42;;;;;;;31.35;18.23;;;;;;;;;;6219826;23;20020;-69
2022/10/07 03:34:10;;;;;;;25.65;14.80;;;;;;;;;;6220047;23;20028;-69
2022/10/07 03:36:41;;;;;;;37.33;23.88;;;;;;;;;;6219943;23;20438;-67
2022/10/07 03:39:09;;;;;;;56.53;34.40;;;;;;;;;;6219966;23;20135;-68
2022/10/07 03:41:37;;;;;;;43.63;26.92;;;;;;;;;;6220144;23;20016;-68
2022/10/07 03:44:05;;;;;;;58.00;34.60;;;;;;;;;;6219864;23;20027;-68
2022/10/07 03:46:33;;;;;;;25.48;15.30;;;;;;;;;;6219830;23;20020;-68
2022/10/07 03:49:01;;;;;;;46.83;29.50;;;;;;;;;;6194849;23;20031;-67
2022/10/07 03:51:30;;;;;;;25.02;14.63;;;;;;;;;;6219482;23;20020;-67
2022/10/07 03:53:58;;;;;;;41.38;25.50;;;;;;;;;;6219573;23;20043;-67
2022/10/07 03:56:30;;;;;;;31.77;18.83;;;;;;;;;;6220021;23;20089;-67
2022/10/07 03:58:59;;;;;;;42.03;26.38;;;;;;;;;;6219958;23;20024;-67
2022/10/07 04:01:30;;;;;;;48.83;32.90;;;;;;;;;;6219826;23;20023;-67
2022/10/07 04:03:59;;;;;;;47.95;30.83;;;;;;;;;;6219881;23;20028;-67
2022/10/07 04:06:30;;;;;;;31.17;21.52;;;;;;;;;;6219914;23;20349;-68
2022/10/07 04:09:02;;;;;;;20.95;12.35;;;;;;;;;;6219697;23;20024;-67
2022/10/07 04:11:29;;;;;;;45.75;28.13;;;;;;;;;;6219857;23;20024;-67
2022/10/07 04:14:01;;;;;;;46.63;27.30;;;;;;;;;;6219785;23;20024;-67
2022/10/07 04:16:29;;;;;;;31.75;19.63;;;;;;;;;;6195158;23;20016;-68
2022/10/07 04:19:04;;;;;;;26.60;17.63;;;;;;;;;;6219106;23;20016;-67
2022/10/07 04:21:32;;;;;;;36.60;22.05;;;;;;;;;;6219432;23;20031;-68
2022/10/07 04:24:00;;;;;;;33.28;21.98;;;;;;;;;;6219050;23;20030;-67
2022/10/07 04:26:28;;;;;;;37.53;25.90;;;;;;;;;;6219586;23;20458;-67
2022/10/07 04:28:55;;;;;;;28.08;17.40;;;;;;;;;;6195015;23;20024;-68
2022/10/07 04:31:23;;;;;;;24.38;17.05;;;;;;;;;;6219600;23;20026;-68
2022/10/07 04:34:01;;;;;;;23.02;15.88;;;;;;;;;;6219455;23;20102;-68
2022/10/07 04:36:34;;;;;;;26.40;14.90;;;;;;;;;;6217324;23;20020;-68
2022/10/07 04:39:11;;;;;;;22.88;12.10;;;;;;;;;;6218259;23;20020;-68
2022/10/07 04:41:57;;;;;;;18.75;11.30;;;;;;;;;;6218264;23;20028;-68
2022/10/07 04:44:30;;;;;;;16.58;10.52;;;;;;;;;;6218348;23;20024;-68
2022/10/07 04:47:05;;;;;;;22.40;10.75;;;;;;;;;;6218951;23;20020;-68
2022/10/07 04:49:34;;;;;;;21.05;10.10;;;;;;;;;;6219096;23;20047;-67
2022/10/07 04:52:04;;;;;;;17.73;9.98;;;;;;;;;;6219383;23;20026;-67
2022/10/07 04:54:45;;;;;;;21.02;10.27;;;;;;;;;;6219338;23;20051;-68
2022/10/07 04:57:13;;;;;;;15.82;9.63;;;;;;;;;;6219676;23;20070;-67
2022/10/07 04:59:42;;;;;;;18.42;9.02;;;;;;;;;;6244594;23;20020;-66
2022/10/07 05:02:13;;;;;;;17.85;9.48;;;;;;;;;;6219325;23;20070;-66
2022/10/07 05:04:43;;;;;;;23.45;9.27;;;;;;;;;;6219422;23;20020;-67
2022/10/07 05:07:11;;;;;;;14.52;9.25;;;;;;;;;;6219028;23;20070;-67
2022/10/07 05:09:40;;;;;;;15.30;8.27;;;;;;;;;;6194366;23;20484;-68
2022/10/07 05:12:08;;;;;;;25.13;13.15;;;;;;;;;;6218808;23;20023;-68
2022/10/07 05:14:41;;;;;;;26.13;8.07;;;;;;;;;;6219157;23;20346;-69
2022/10/07 05:17:11;;;;;;;19.67;9.13;;;;;;;;;;6219016;23;20020;-68
2022/10/07 05:19:40;;;;;;;52.08;32.20;;;;;;;;;;6219100;23;20447;-69
2022/10/07 05:22:08;;;;;;;17.63;10.13;;;;;;;;;;6219787;23;20008;-68
2022/10/07 05:24:35;;;;;;;36.40;22.30;;;;;;;;;;6219027;23;20240;-68
2022/10/07 05:27:03;;;;;;;28.08;17.08;;;;;;;;;;6245799;23;20012;-69
2022/10/07 05:29:31;;;;;;;21.90;12.10;;;;;;;;;;6194024;23;20445;-69
2022/10/07 05:31:58;;;;;;;21.38;11.90;;;;;;;;;;6246258;23;20020;-69
2022/10/07 05:34:32;;;;;;;12.85;8.48;;;;;;;;;;6218836;23;20020;-68
2022/10/07 05:37:00;;;;;;;16.42;9.48;;;;;;;;;;6218872;23;20016;-69
2022/10/07 05:39:27;;;;;;;18.02;8.65;;;;;;;;;;6218751;23;20016;-68
2022/10/07 05:42:01;;;;;;;15.53;7.60;;;;;;;;;;6218897;23;20082;-68
2022/10/07 05:44:36;;;;;;;15.07;9.77;;;;;;;;;;6195485;23;20043;-68
2022/10/07 05:47:05;;;;;;;14.82;8.48;;;;;;;;;;6218440;23;20020;-68
2022/10/07 05:49:34;;;;;;;19.85;11.43;;;;;;;;;;6218882;23;20027;-68
2022/10/07 05:52:02;;;;;;;20.67;12.13;;;;;;;;;;6218990;23;20305;-68
2022/10/07 05:54:32;;;;;;;17.80;8.73;;;;;;;;;;6218834;23;20095;-68
2022/10/07 05:57:00;;;;;;;18.15;8.77;;;;;;;;;;6218881;23;20514;-68
2022/10/07 05:59:28;;;;;;;14.70;7.55;;;;;;;;;;6218817;23;20024;-68
2022/10/07 06:01:58;;;;;;;12.85;7.57;;;;;;;;;;6218730;23;20042;-68
2022/10/07 06:04:27;;;;;;;14.77;6.43;;;;;;;;;;6218739;23;20228;-68
2022/10/07 06:06:55;;;;;;;11.35;6.40;;;;;;;;;;6194108;23;20086;-68
2022/10/07 06:15:06;;;;;;;11.38;7.43;;;;;;;;;;6218706;23;20397;-69
2022/10/07 06:17:33;;;;;;;11.45;7.55;;;;;;;;;;6218640;23;20048;-69
2022/10/07 06:20:04;;;;;;;10.55;7.40;;;;;;;;;;6219137;23;20476;-70
2022/10/07 06:22:33;;;;;;;10.13;6.53;;;;;;;;;;6219087;23;20020;-70
2022/10/07 06:25:01;;;;;;;9.93;6.70;;;;;;;;;;6218412;23;20032;-69
2022/10/07 06:27:30;;;;;;;11.30;6.53;;;;;;;;;;6218481;23;20548;-69
2022/10/07 06:29:58;;;;;;;12.98;6.40;;;;;;;;;;6194262;23;20065;-69
2022/10/07 06:32:28;;;;;;;12.48;6.07;;;;;;;;;;6218643;23;20062;-68
2022/10/07 06:34:55;;;;;;;15.30;6.88;;;;;;;;;;6218613;23;20020;-68
2022/10/07 06:37:23;;;;;;;12.20;7.63;;;;;;;;;;6218561;23;20023;-68
2022/10/07 06:39:50;;;;;;;13.75;6.55;;;;;;;;;;6218301;23;20020;-69
2022/10/07 06:42:23;;;;;;;12.43;8.40;;;;;;;;;;6243278;23;20040;-68
2022/10/07 06:45:17;;;;;;;20.83;10.32;;;;;;;;;;6245042;23;20346;-68
2022/10/07 06:47:45;;;;;;;11.48;7.15;;;;;;;;;;6218431;23;20020;-68
2022/10/07 06:50:13;;;;;;;10.23;6.40;;;;;;;;;;6218574;23;20112;-68
2022/10/07 06:52:42;;;;;;;17.10;11.73;;;;;;;;;;6193864;23;20016;-69
2022/10/07 06:55:10;;;;;;;16.90;10.05;;;;;;;;;;6218317;23;20028;-69
2022/10/07 06:57:39;;;;;;;7.90;5.80;;;;;;;;;;6218209;23;20099;-70
2022/10/07 07:00:23;;;;;;;13.77;8.32;;;;;;;;;;6218390;23;20099;-69
2022/10/07 07:02:50;;;;;;;8.40;5.93;;;;;;;;;;6218491;23;20027;-70
2022/10/07 07:05:19;;;;;;;13.98;7.18;;;;;;;;;;6218192;23;20091;-69
2022/10/07 07:07:47;;;;;;;5.57;4.90;;;;;;;;;;6218182;23;20035;-69
2022/10/07 07:10:16;;;;;;;10.60;7.10;;;;;;;;;;6218169;23;20017;-68
2022/10/07 07:12:46;;;;;;;8.32;5.30;;;;;;;;;;6243727;23;20024;-69
2022/10/07 07:15:16;;;;;;;9.57;5.90;;;;;;;;;;6218437;23;20020;-68
2022/10/07 07:17:43;;;;;;;11.75;5.55;;;;;;;;;;6218453;23;20094;-68
2022/10/07 07:20:12;;;;;;;13.35;8.10;;;;;;;;;;6218371;23;20016;-68
2022/10/07 07:22:40;;;;;;;13.38;6.32;;;;;;;;;;6218438;23;20342;-69
2022/10/07 07:25:09;;;;;;;16.30;9.40;;;;;;;;;;6218104;23;20048;-69
2022/10/07 07:27:37;;;;;;;10.40;6.10;;;;;;;;;;6218272;23;20017;-69
2022/10/07 07:30:06;;;;;;;12.68;5.70;;;;;;;;;;6217990;23;20035;-68
2022/10/07 07:32:34;;;;;;;8.18;5.72;;;;;;;;;;6218608;23;20446;-68
2022/10/07 07:35:03;;;;;;;9.52;5.55;;;;;;;;;;6218295;23;20024;-69
2022/10/07 07:37:31;;;;;;;9.45;5.97;;;;;;;;;;6218211;23;20024;-69
2022/10/07 07:39:58;;;;;;;12.75;7.60;;;;;;;;;;6193435;23;20345;-69
2022/10/07 07:42:26;;;;;;;35.65;24.42;;;;;;;;;;6218048;23;20349;-69
2022/10/07 07:44:54;;;;;;;9.48;5.88;;;;;;;;;;6218100;23;20024;-69
2022/10/07 07:47:24;;;;;;;9.30;5.47;;;;;;;;;;6218163;23;20406;-68
2022/10/07 07:49:53;;;;;;;12.15;6.03;;;;;;;;;;6217994;23;20024;-69
2022/10/07 07:52:26;;;;;;;15.30;10.20;;;;;;;;;;6218122;23;20020;-69
2022/10/07 07:54:57;;;;;;;14.15;9.48;;;;;;;;;;6219874;23;20320;-69
2022/10/07 07:57:26;;;;;;;16.63;9.63;;;;;;;;;;6219964;23;20103;-68
2022/10/07 07:59:57;;;;;;;12.98;7.00;;;;;;;;;;6219725;23;20446;-69
2022/10/07 08:02:25;;;;;;;10.85;5.43;;;;;;;;;;6219962;23;20020;-68
2022/10/07 08:04:53;;;;;;;6.35;4.93;;;;;;;;;;6195065;23;20350;-68
2022/10/07 08:07:22;;;;;;;6.75;4.70;;;;;;;;;;6219622;23;20016;-69
2022/10/07 08:09:50;;;;;;;10.60;5.70;;;;;;;;;;6219630;23;20020;-69
2022/10/07 08:12:19;;;;;;;13.80;7.20;;;;;;;;;;6219724;23;20028;-69
2022/10/07 08:14:48;;;;;;;11.30;5.30;;;;;;;;;;6219910;23;20331;-69
2022/10/07 08:17:16;;;;;;;12.90;8.25;;;;;;;;;;6219797;23;20373;-69
2022/10/07 08:19:44;;;;;;;7.82;4.47;;;;;;;;;;6219786;23;20382;-69
2022/10/07 08:22:16;;;;;;;7.55;5.03;;;;;;;;;;6219769;23;20016;-69
2022/10/07 08:24:47;;;;;;;8.18;4.78;;;;;;;;;;6219607;23;20048;-69
2022/10/07 08:27:17;;;;;;;14.52;6.40;;;;;;;;;;6219817;23;20091;-69
2022/10/07 08:29:45;;;;;;;7.32;5.18;;;;;;;;;;6219623;23;20073;-69
2022/10/07 08:32:13;;;;;;;6.63;4.90;;;;;;;;;;6219613;23;20020;-69
2022/10/07 08:34:40;;;;;;;9.95;6.10;;;;;;;;;;6246426;23;20012;-70
2022/10/07 08:37:08;;;;;;;9.98;5.13;;;;;;;;;;6246459;23;20024;-69
2022/10/07 08:39:35;;;;;;;8.43;4.70;;;;;;;;;;6246327;23;20016;-70
2022/10/07 08:42:12;;;;;;;10.00;5.20;;;;;;;;;;6246339;23;20034;-68
2022/10/07 08:44:41;;;;;;;8.52;5.22;;;;;;;;;;6219425;23;20438;-69
2022/10/07 08:47:08;;;;;;;7.03;4.07;;;;;;;;;;6219478;23;20386;-69
2022/10/07 08:49:46;;;;;;;6.45;4.03;;;;;;;;;;6246731;23;20024;-69
2022/10/07 08:52:24;;;;;;;6.32;4.32;;;;;;;;;;6246437;23;20015;-69
2022/10/07 08:54:52;;;;;;;8.20;4.63;;;;;;;;;;6246055;23;20030;-70
2022/10/07 08:57:30;;;;;;;5.38;4.00;;;;;;;;;;6219355;23;20058;-69
2022/10/07 09:00:01;;;;;;;5.57;4.40;;;;;;;;;;6246135;23;20442;-68
2022/10/07 09:02:35;;;;;;;7.53;4.72;;;;;;;;;;6246226;23;20508;-69
2022/10/07 09:05:19;;;;;;;6.03;4.32;;;;;;;;;;6245858;23;20027;-69
2022/10/07 09:07:51;;;;;;;8.57;4.90;;;;;;;;;;6246075;23;20099;-68
2022/10/07 09:10:31;;;;;;;8.68;4.55;;;;;;;;;;6219804;23;20088;-69
2022/10/07 09:13:02;;;;;;;8.73;4.72;;;;;;;;;;6246241;23;20016;-69
2022/10/07 09:15:42;;;;;;;8.85;4.40;;;;;;;;;;6246169;23;20448;-68
2022/10/07 09:18:16;;;;;;;8.43;4.68;;;;;;;;;;6246209;23;20372;-67
2022/10/07 09:20:45;;;;;;;5.60;4.10;;;;;;;;;;6246077;23;20026;-68
2022/10/07 09:23:18;;;;;;;7.57;4.50;;;;;;;;;;6246182;23;20058;-69
2022/10/07 09:25:45;;;;;;;8.48;4.70;;;;;;;;;;6245823;23;20046;-69
2022/10/07 09:28:14;;;;;;;11.02;5.22;;;;;;;;;;6219389;23;20066;-69
2022/10/07 09:30:42;;;;;;;9.60;5.03;;;;;;;;;;6246236;23;20086;-69
2022/10/07 09:33:19;;;;;;;8.75;4.82;;;;;;;;;;6246035;23;20016;-68
2022/10/07 09:35:53;;;;;;;11.93;6.40;;;;;;;;;;6245923;23;20016;-70
2022/10/07 09:38:31;;;;;;;17.52;10.73;;;;;;;;;;6245807;23;20512;-70
2022/10/07 09:41:14;;;;;;;18.98;12.05;;;;;;;;;;6245771;23;20450;-70
2022/10/07 09:44:01;;;;;;;9.57;5.47;;;;;;;;;;6245895;23;20023;-70
2022/10/07 09:46:30;;;;;;;8.57;4.75;;;;;;;;;;6245689;23;20092;-70
2022/10/07 09:48:58;;;;;;;7.60;4.70;;;;;;;;;;6245848;23;20158;-69
2022/10/07 09:51:28;;;;;;;6.13;3.78;;;;;;;;;;6245679;23;20041;-69
2022/10/07 09:53:56;;;;;;;8.20;4.72;;;;;;;;;;6218858;23;20067;-69
2022/10/07 09:56:32;;;;;;;10.52;5.35;;;;;;;;;;6245593;23;20016;-69
2022/10/07 09:59:18;;;;;;;6.05;4.60;;;;;;;;;;6245465;23;20016;-69
2022/10/07 10:01:56;;;;;;;10.63;4.40;;;;;;;;;;6245558;23;20013;-69
2022/10/07 10:04:29;;;;;;;6.93;3.90;;;;;;;;;;6245493;23;20038;-70
2022/10/07 10:07:00;;;;;;;8.82;5.00;;;;;;;;;;6245362;23;20043;-68
2022/10/07 10:09:28;;;;;;;15.05;6.30;;;;;;;;;;6245444;23;20016;-70
2022/10/07 10:12:06;;;;;;;14.27;5.15;;;;;;;;;;6245579;23;20027;-70
2022/10/07 10:14:42;;;;;;;9.48;4.38;;;;;;;;;;6245292;23;20012;-70
2022/10/07 10:17:42;;;;;;;11.82;4.72;;;;;;;;;;6245894;23;20020;-69
2022/10/07 10:20:28;;;;;;;13.77;4.88;;;;;;;;;;6179665;23;20103;-67
2022/10/07 10:22:56;;;;;;;8.75;4.35;;;;;;;;;;6245343;23;20020;-69
2022/10/07 10:28:31;;;;;;;8.07;4.63;;;;;;;;;;6245206;23;20017;-68
2022/10/07 10:31:02;;;;;;;14.70;8.88;;;;;;;;;;6245273;23;20315;-68
2022/10/07 10:33:39;;;;;;;11.30;6.00;;;;;;;;;;6219019;23;20022;-69
2022/10/07 10:36:13;;;;;;;7.13;4.72;;;;;;;;;;6245389;23;20020;-68
2022/10/07 10:38:45;;;;;;;9.57;6.00;;;;;;;;;;6245176;23;20013;-69
2022/10/07 10:41:34;;;;;;;13.90;6.65;;;;;;;;;;6245575;23;20028;-69
2022/10/07 10:44:31;;;;;;;16.67;9.50;;;;;;;;;;6245591;23;20018;-68
2022/10/07 10:46:59;;;;;;;13.55;6.20;;;;;;;;;;6115525;23;20045;-68
2022/10/07 10:49:29;;;;;;;8.32;5.35;;;;;;;;;;6245163;23;20017;-69
2022/10/07 10:52:24;;;;;;;33.65;15.50;;;;;;;;;;6245188;23;20031;-69
2022/10/07 10:54:53;;;;;;;13.18;7.15;;;;;;;;;;6201481;23;20024;-69
2022/10/07 10:57:30;;;;;;;16.48;10.73;;;;;;;;;;6245264;23;20396;-69
2022/10/07 11:00:08;;;;;;;12.30;6.60;;;;;;;;;;6245162;23;20454;-69
2022/10/07 11:02:38;;;;;;;8.88;5.13;;;;;;;;;;6245270;23;20012;-69
2022/10/07 11:05:08;;;;;;;7.40;5.13;;;;;;;;;;6245184;23;20342;-69
2022/10/07 11:07:37;;;;;;;6.28;3.90;;;;;;;;;;6218437;23;20017;-69
2022/10/07 11:10:25;;;;;;;7.05;3.60;;;;;;;;;;6245258;23;20028;-69
2022/10/07 11:12:57;;;;;;;7.85;3.67;;;;;;;;;;6245279;23;20450;-69
2022/10/07 11:15:26;;;;;;;5.68;3.70;;;;;;;;;;6245076;23;20020;-68
2022/10/07 11:17:55;;;;;;;6.93;3.83;;;;;;;;;;6245071;23;20008;-69
2022/10/07 11:20:34;;;;;;;4.82;3.20;;;;;;;;;;6218170;23;20457;-69
2022/10/07 11:23:04;;;;;;;5.97;3.90;;;;;;;;;;6245133;23;20016;-70
2022/10/07 11:25:37;;;;;;;8.55;3.58;;;;;;;;;;6245096;23;20094;-70
2022/10/07 11:28:16;;;;;;;9.45;3.60;;;;;;;;;;6245477;23;20022;-70
2022/10/07 11:30:52;;;;;;;7.18;3.42;;;;;;;;;;6247102;23;20442;-70
2022/10/07 11:33:26;;;;;;;4.75;3.90;;;;;;;;;;6247140;23;20020;-70
2022/10/07 11:35:56;;;;;;;8.57;3.63;;;;;;;;;;6246626;23;20021;-70
2022/10/07 11:38:30;;;;;;;6.68;3.70;;;;;;;;;;6246746;23;20020;-69
2022/10/07 11:41:01;;;;;;;6.47;3.72;;;;;;;;;;6247200;23;20457;-67
2022/10/07 11:43:32;;;;;;;9.93;4.78;;;;;;;;;;6219997;23;20512;-73
2022/10/07 11:46:09;;;;;;;9.30;4.40;;;;;;;;;;6247109;23;20020;-71
2022/10/07 11:48:49;;;;;;;8.50;4.25;;;;;;;;;;6246743;23;20434;-72
2022/10/07 11:51:21;;;;;;;8.23;3.70;;;;;;;;;;6246788;23;20043;-72
2022/10/07 11:53:48;;;;;;;6.00;3.58;;;;;;;;;;6246825;23;20031;-72
2022/10/07 11:56:19;;;;;;;7.78;3.38;;;;;;;;;;6247043;23;20024;-72
2022/10/07 11:58:55;;;;;;;4.20;3.33;;;;;;;;;;6246851;23;20066;-72
2022/10/07 12:01:29;;;;;;;6.50;3.28;;;;;;;;;;6246696;23;20024;-71
2022/10/07 12:04:14;;;;;;;8.90;3.80;;;;;;;;;;6246669;23;20016;-69
2022/10/07 12:07:05;;;;;;;8.93;3.58;;;;;;;;;;6246479;23;20026;-70
2022/10/07 12:09:51;;;;;;;8.90;4.28;;;;;;;;;;6246424;23;20016;-70
2022/10/07 12:12:22;;;;;;;4.93;3.95;;;;;;;;;;6219532;23;20023;-69
2022/10/07 12:15:00;;;;;;;8.77;4.15;;;;;;;;;;6246669;23;20016;-70
2022/10/07 12:17:29;;;;;;;7.78;4.30;;;;;;;;;;6246629;23;20016;-70
2022/10/07 12:20:15;;;;;;;7.95;5.05;;;;;;;;;;6246467;23;20430;-70
2022/10/07 12:22:42;;;;;;;7.05;4.47;;;;;;;;;;6246596;23;20343;-70
2022/10/07 12:25:30;;;;;;;10.13;4.45;;;;;;;;;;6246282;23;20338;-69
2022/10/07 12:27:59;;;;;;;8.73;5.13;;;;;;;;;;6246566;23;20020;-69
2022/10/07 12:30:38;;;;;;;9.85;4.78;;;;;;;;;;6246328;23;20091;-70
2022/10/07 12:33:15;;;;;;;6.95;3.50;;;;;;;;;;6246372;23;20044;-72
2022/10/07 12:35:45;;;;;;;5.65;3.83;;;;;;;;;;6246419;23;20031;-71
2022/10/07 12:38:25;;;;;;;5.40;3.97;;;;;;;;;;6246465;23;20020;-70
2022/10/07 12:40:58;;;;;;;5.78;4.25;;;;;;;;;;6245973;23;20344;-71
2022/10/07 12:43:47;;;;;;;7.85;4.10;;;;;;;;;;6246134;23;20020;-70
2022/10/07 12:46:17;;;;;;;11.18;5.07;;;;;;;;;;6246238;23;20022;-71
2022/10/07 12:48:47;;;;;;;4.63;3.60;;;;;;;;;;6219335;23;20377;-70
2022/10/07 12:51:18;;;;;;;8.10;3.80;;;;;;;;;;6246210;23;20053;-70
2022/10/07 12:53:46;;;;;;;7.88;4.88;;;;;;;;;;6246164;23;20035;-71
2022/10/07 12:56:25;;;;;;;5.53;3.83;;;;;;;;;;6246637;23;20388;-69
2022/10/07 13:01:54;;;;;;;7.05;3.67;;;;;;;;;;6246207;23;20342;-68
2022/10/07 13:04:31;;;;;;;10.55;3.38;;;;;;;;;;6246009;23;20048;-68
2022/10/07 13:07:28;;;;;;;8.70;3.63;;;;;;;;;;6246351;23;20028;-68
2022/10/07 13:10:14;;;;;;;5.47;3.38;;;;;;;;;;6220807;23;20039;-67
2022/10/07 13:13:03;;;;;;;7.00;3.25;;;;;;;;;;6245093;23;20095;-69
2022/10/07 13:15:34;;;;;;;5.22;3.20;;;;;;;;;;6245840;23;20023;-69
2022/10/07 13:18:05;;;;;;;8.10;3.60;;;;;;;;;;6245577;23;20043;-67
2022/10/07 13:20:43;;;;;;;7.63;4.00;;;;;;;;;;6245852;23;20507;-68
2022/10/07 13:23:13;;;;;;;6.63;3.67;;;;;;;;;;6245760;23;20091;-68
2022/10/07 13:25:43;;;;;;;10.05;3.70;;;;;;;;;;6245700;23;20027;-68
2022/10/07 13:28:13;;;;;;;6.72;3.35;;;;;;;;;;6245759;23;20079;-68
2022/10/07 13:30:42;;;;;;;13.88;5.47;;;;;;;;;;6245959;23;20027;-68
2022/10/07 13:33:19;;;;;;;15.05;7.55;;;;;;;;;;6245948;23;20012;-67
2022/10/07 13:35:47;;;;;;;15.90;10.77;;;;;;;;;;6245832;23;20099;-68
2022/10/07 13:38:25;;;;;;;18.73;10.77;;;;;;;;;;6245828;23;20012;-70
2022/10/07 13:40:58;;;;;;;18.15;9.73;;;;;;;;;;6245361;23;20020;-69
2022/10/07 13:43:28;;;;;;;10.10;6.00;;;;;;;;;;6245629;23;20023;-68
2022/10/07 13:45:56;;;;;;;7.55;4.57;;;;;;;;;;6245466;23;20027;-68
2022/10/07 13:48:26;;;;;;;10.50;3.33;;;;;;;;;;6219071;23;20082;-69
2022/10/07 13:50:55;;;;;;;7.93;3.47;;;;;;;;;;6244034;23;20077;-68
2022/10/07 13:53:25;;;;;;;6.90;3.65;;;;;;;;;;6245302;23;20067;-69
2022/10/07 13:56:04;;;;;;;7.32;3.72;;;;;;;;;;6244279;23;20315;-70
2022/10/07 13:58:32;;;;;;;6.38;3.80;;;;;;;;;;6245212;23;20079;-69
2022/10/07 14:01:02;;;;;;;8.40;4.03;;;;;;;;;;6245362;23;20031;-69
2022/10/07 14:03:29;;;;;;;4.95;3.10;;;;;;;;;;6218425;23;20071;-68
2022/10/07 14:05:57;;;;;;;7.75;3.42;;;;;;;;;;6244135;23;20020;-67
2022/10/07 14:08:29;;;;;;;5.95;3.03;;;;;;;;;;6244189;23;20112;-67
2022/10/07 14:10:56;;;;;;;5.72;3.08;;;;;;;;;;6244762;23;20020;-66
2022/10/07 14:13:26;;;;;;;6.68;3.22;;;;;;;;;;6244511;23;20039;-66
2022/10/07 14:15:54;;;;;;;6.50;3.78;;;;;;;;;;6217544;23;20457;-68
2022/10/07 14:18:22;;;;;;;5.93;3.70;;;;;;;;;;6244545;23;20019;-67
2022/10/07 14:20:55;;;;;;;10.20;3.97;;;;;;;;;;6244815;23;20012;-66
2022/10/07 14:23:33;;;;;;;5.22;4.03;;;;;;;;;;6244860;23;20016;-67
2022/10/07 14:26:04;;;;;;;6.78;4.00;;;;;;;;;;6244520;23;20012;-67
2022/10/07 14:28:33;;;;;;;9.50;3.83;;;;;;;;;;6218253;23;20020;-67
2022/10/07 14:37:07;;;;;;;14.60;8.10;;;;;;;;;;6244605;23;20074;-70
2022/10/07 14:39:34;;;;;;;12.88;8.13;;;;;;;;;;6217026;23;20346;-68
2022/10/07 14:42:02;;;;;;;11.52;5.93;;;;;;;;;;6244055;23;20012;-68
2022/10/07 14:44:30;;;;;;;10.05;5.95;;;;;;;;;;6244926;23;20453;-69
2022/10/07 14:47:04;;;;;;;13.48;7.22;;;;;;;;;;6245065;23;20091;-72
2022/10/07 14:49:31;;;;;;;12.90;9.07;;;;;;;;;;6245277;23;20434;-72
2022/10/07 14:52:00;;;;;;;16.83;9.73;;;;;;;;;;6218223;23;20017;-71
2022/10/07 14:54:27;;;;;;;17.83;12.27;;;;;;;;;;6245117;23;20016;-70
2022/10/07 14:56:55;;;;;;;19.42;12.10;;;;;;;;;;6245191;23;20023;-70
2022/10/07 14:59:24;;;;;;;12.70;9.10;;;;;;;;;;6245092;23;20016;-70
2022/10/07 15:01:52;;;;;;;14.20;10.55;;;;;;;;;;6244900;23;20454;-72
2022/10/07 15:04:19;;;;;;;17.95;10.20;;;;;;;;;;6246859;23;20027;-71
2022/10/07 15:06:47;;;;;;;10.50;7.03;;;;;;;;;;6246860;23;20063;-71
2022/10/07 15:09:17;;;;;;;9.50;5.50;;;;;;;;;;6247053;23;20083;-69
2022/10/07 15:11:45;;;;;;;9.60;7.15;;;;;;;;;;6220053;23;20327;-71
2022/10/07 15:14:12;;;;;;;17.17;12.10;;;;;;;;;;6246806;23;20073;-69
2022/10/07 15:16:40;;;;;;;9.27;7.10;;;;;;;;;;6246541;23;20078;-69